createdAt,value
2023-11-18T00:00:19.993Z,1018.83
2023-11-18T00:01:19.979Z,1018.86
2023-11-18T00:02:19.991Z,1018.82
2023-11-18T00:03:19.970Z,1018.85
2023-11-18T00:04:19.922Z,1018.89
2023-11-18T00:05:19.861Z,1018.89
2023-11-18T00:06:19.832Z,1018.90
2023-11-18T00:07:19.803Z,1018.92
2023-11-18T00:08:19.780Z,1018.96
2023-11-18T00:09:19.754Z,1018.93
2023-11-18T00:10:19.707Z,1018.95
2023-11-18T00:11:19.712Z,1018.98
2023-11-18T00:12:19.660Z,1019.00
2023-11-18T00:13:19.634Z,1018.96
2023-11-18T00:14:19.595Z,1018.96
2023-11-18T00:15:19.570Z,1018.89
2023-11-18T00:16:19.571Z,1018.92
2023-11-18T00:17:19.517Z,1018.94
2023-11-18T00:18:19.493Z,1018.91
2023-11-18T00:19:19.467Z,1018.91
2023-11-18T00:20:19.433Z,1018.91
2023-11-18T00:21:19.400Z,1018.92
2023-11-18T00:22:19.371Z,1018.88
2023-11-18T00:23:21.901Z,1018.91
2023-11-18T00:24:19.313Z,1018.86
2023-11-18T00:25:19.294Z,1018.84
2023-11-18T00:26:19.255Z,1018.82
2023-11-18T00:27:19.250Z,1018.81
2023-11-18T00:28:19.197Z,1018.77
2023-11-18T00:29:19.186Z,1018.81
2023-11-18T00:30:19.155Z,1018.79
2023-11-18T00:31:19.198Z,1018.79
2023-11-18T00:32:19.151Z,1018.76
2023-11-18T00:33:19.129Z,1018.77
2023-11-18T00:34:19.032Z,1018.74
2023-11-18T00:35:19.023Z,1018.78
2023-11-18T00:36:19.016Z,1018.70
2023-11-18T00:37:18.945Z,1018.69
2023-11-18T00:38:18.934Z,1018.70
2023-11-18T00:39:18.896Z,1018.70
2023-11-18T00:40:18.864Z,1018.71
2023-11-18T00:41:18.975Z,1018.70
2023-11-18T00:42:18.806Z,1018.69
2023-11-18T00:43:18.797Z,1018.71
2023-11-18T00:44:18.756Z,1018.70
2023-11-18T00:45:18.719Z,1018.74
2023-11-18T00:46:18.693Z,1018.77
2023-11-18T00:47:18.754Z,1018.74
2023-11-18T00:48:18.650Z,1018.75
2023-11-18T00:49:18.645Z,1018.76
2023-11-18T00:50:18.615Z,1018.77
2023-11-18T00:51:18.552Z,1018.75
2023-11-18T00:52:18.518Z,1018.75
2023-11-18T00:53:18.488Z,1018.76
2023-11-18T00:54:18.460Z,1018.81
2023-11-18T00:55:18.436Z,1018.83
2023-11-18T00:56:18.415Z,1018.84
2023-11-18T00:57:18.387Z,1018.83
2023-11-18T00:58:18.358Z,1018.82
2023-11-18T00:59:18.348Z,1018.82
2023-11-18T01:00:18.299Z,1018.80
2023-11-18T01:01:18.285Z,1018.85
2023-11-18T01:02:18.277Z,1018.81
2023-11-18T01:03:18.316Z,1018.76
2023-11-18T01:04:18.179Z,1018.79
2023-11-18T01:05:18.254Z,1018.78
2023-11-18T01:06:18.119Z,1018.77
2023-11-18T01:07:18.098Z,1018.78
2023-11-18T01:08:18.066Z,1018.79
2023-11-18T01:09:18.036Z,1018.76
2023-11-18T01:10:18.014Z,1018.76
2023-11-18T01:11:17.977Z,1018.77
2023-11-18T01:12:17.970Z,1018.76
2023-11-18T01:13:17.939Z,1018.77
2023-11-18T01:14:17.898Z,1018.75
2023-11-18T01:15:17.890Z,1018.76
2023-11-18T01:16:17.837Z,1018.74
2023-11-18T01:17:17.832Z,1018.75
2023-11-18T01:18:17.862Z,1018.74
2023-11-18T01:19:17.755Z,1018.75
2023-11-18T01:20:17.727Z,1018.75
2023-11-18T01:21:17.709Z,1018.82
2023-11-18T01:22:17.668Z,1018.85
2023-11-18T01:23:17.650Z,1018.86
2023-11-18T01:24:17.617Z,1018.85
2023-11-18T01:25:17.586Z,1018.87
2023-11-18T01:26:17.552Z,1018.87
2023-11-18T01:27:17.526Z,1018.87
2023-11-18T01:28:17.496Z,1018.87
2023-11-18T01:29:17.468Z,1018.87
2023-11-18T01:30:17.436Z,1018.88
2023-11-18T01:31:17.448Z,1018.91
2023-11-18T01:32:17.443Z,1018.86
2023-11-18T01:33:17.430Z,1018.87
2023-11-18T01:34:17.335Z,1018.91
2023-11-18T01:35:17.302Z,1018.89
2023-11-18T01:36:17.270Z,1018.92
2023-11-18T01:37:17.249Z,1018.93
2023-11-18T01:38:17.214Z,1018.91
2023-11-18T01:39:17.184Z,1018.94
2023-11-18T01:40:17.157Z,1018.94
2023-11-18T01:41:17.135Z,1018.94
2023-11-18T01:42:17.106Z,1018.95
2023-11-18T01:43:17.076Z,1018.95
2023-11-18T01:44:17.105Z,1018.99
2023-11-18T01:45:17.023Z,1018.96
2023-11-18T01:46:17.019Z,1019.02
2023-11-18T01:47:16.988Z,1018.98
2023-11-18T01:48:16.933Z,1019.01
2023-11-18T01:49:16.914Z,1019.01
2023-11-18T01:50:16.878Z,1018.98
2023-11-18T01:51:16.852Z,1019.00
2023-11-18T01:52:16.826Z,1019.00
2023-11-18T01:53:16.826Z,1018.98
2023-11-18T01:54:17.069Z,1019.01
2023-11-18T01:55:16.735Z,1019.01
2023-11-18T01:56:16.707Z,1019.01
2023-11-18T01:57:16.683Z,1018.98
2023-11-18T01:58:16.653Z,1019.00
2023-11-18T01:59:16.628Z,1018.99
2023-11-18T02:00:16.614Z,1018.95
2023-11-18T02:01:16.602Z,1018.95
2023-11-18T02:02:16.589Z,1018.92
2023-11-18T02:03:16.616Z,1018.96
2023-11-18T02:04:16.608Z,1018.96
2023-11-18T02:05:16.546Z,1018.92
2023-11-18T02:06:16.428Z,1018.91
2023-11-18T02:07:16.404Z,1018.93
2023-11-18T02:08:16.367Z,1018.92
2023-11-18T02:09:16.345Z,1018.92
2023-11-18T02:10:16.325Z,1018.90
2023-11-18T02:11:16.295Z,1018.94
2023-11-18T02:12:16.251Z,1018.92
2023-11-18T02:13:16.229Z,1018.93
2023-11-18T02:14:16.196Z,1018.94
2023-11-18T02:15:16.180Z,1018.92
2023-11-18T02:16:16.138Z,1018.94
2023-11-18T02:17:16.116Z,1018.92
2023-11-18T02:18:16.142Z,1018.88
2023-11-18T02:19:16.076Z,1018.93
2023-11-18T02:20:16.031Z,1018.84
2023-11-18T02:21:15.998Z,1018.87
2023-11-18T02:22:15.964Z,1018.85
2023-11-18T02:23:15.942Z,1018.80
2023-11-18T02:24:15.915Z,1018.78
2023-11-18T02:25:15.893Z,1018.82
2023-11-18T02:26:15.858Z,1018.78
2023-11-18T02:27:15.829Z,1018.77
2023-11-18T02:28:15.799Z,1018.77
2023-11-18T02:29:15.795Z,1018.79
2023-11-18T02:30:15.746Z,1018.83
2023-11-18T02:31:15.715Z,1018.85
2023-11-18T02:32:15.684Z,1018.88
2023-11-18T02:33:15.847Z,1018.84
2023-11-18T02:34:15.628Z,1018.89
2023-11-18T02:35:15.619Z,1018.89
2023-11-18T02:36:15.582Z,1018.92
2023-11-18T02:37:15.549Z,1018.93
2023-11-18T02:38:15.527Z,1018.93
2023-11-18T02:39:15.490Z,1018.90
2023-11-18T02:40:15.707Z,1018.90
2023-11-18T02:41:15.442Z,1018.92
2023-11-18T02:42:15.403Z,1018.94
2023-11-18T02:43:15.387Z,1018.93
2023-11-18T02:44:15.342Z,1018.92
2023-11-18T02:45:15.313Z,1018.88
2023-11-18T02:46:15.357Z,1018.87
2023-11-18T02:48:15.287Z,1018.88
2023-11-18T02:49:15.212Z,1018.94
2023-11-18T02:50:15.196Z,1018.90
2023-11-18T02:51:15.170Z,1018.86
2023-11-18T02:52:15.112Z,1018.90
2023-11-18T02:53:15.086Z,1018.88
2023-11-18T02:54:15.072Z,1018.94
2023-11-18T02:55:15.034Z,1018.87
2023-11-18T02:56:15.010Z,1018.85
2023-11-18T02:57:14.998Z,1018.83
2023-11-18T02:58:14.944Z,1018.75
2023-11-18T02:59:14.938Z,1018.73
2023-11-18T03:00:14.890Z,1018.72
2023-11-18T03:01:14.879Z,1018.76
2023-11-18T03:02:14.954Z,1018.76
2023-11-18T03:03:14.846Z,1018.78
2023-11-18T03:04:14.794Z,1018.73
2023-11-18T03:05:14.750Z,1018.71
2023-11-18T03:06:14.724Z,1018.78
2023-11-18T03:07:14.739Z,1018.75
2023-11-18T03:08:14.689Z,1018.72
2023-11-18T03:09:14.637Z,1018.75
2023-11-18T03:10:14.616Z,1018.71
2023-11-18T03:11:14.573Z,1018.70
2023-11-18T03:12:14.551Z,1018.66
2023-11-18T03:13:14.521Z,1018.63
2023-11-18T03:14:14.584Z,1018.60
2023-11-18T03:15:14.476Z,1018.61
2023-11-18T03:16:14.463Z,1018.65
2023-11-18T03:17:14.463Z,1018.65
2023-11-18T03:18:14.382Z,1018.65
2023-11-18T03:19:14.350Z,1018.68
2023-11-18T03:20:14.348Z,1018.64
2023-11-18T03:21:14.293Z,1018.61
2023-11-18T03:22:14.266Z,1018.58
2023-11-18T03:23:14.311Z,1018.56
2023-11-18T03:24:14.219Z,1018.53
2023-11-18T03:25:14.177Z,1018.52
2023-11-18T03:26:14.154Z,1018.48
2023-11-18T03:27:14.143Z,1018.51
2023-11-18T03:28:14.105Z,1018.54
2023-11-18T03:29:14.060Z,1018.55
2023-11-18T03:30:14.152Z,1018.57
2023-11-18T03:31:14.012Z,1018.59
2023-11-18T03:32:13.985Z,1018.57
2023-11-18T03:33:13.971Z,1018.54
2023-11-18T03:34:13.937Z,1018.54
2023-11-18T03:35:14.039Z,1018.52
2023-11-18T03:36:13.890Z,1018.49
2023-11-18T03:37:13.835Z,1018.48
2023-11-18T03:38:13.807Z,1018.45
2023-11-18T03:39:13.795Z,1018.45
2023-11-18T03:40:13.761Z,1018.39
2023-11-18T03:41:13.799Z,1018.42
2023-11-18T03:42:13.696Z,1018.41
2023-11-18T03:43:13.663Z,1018.40
2023-11-18T03:44:13.632Z,1018.40
2023-11-18T03:45:13.610Z,1018.39
2023-11-18T03:46:13.635Z,1018.38
2023-11-18T03:47:13.569Z,1018.38
2023-11-18T03:48:13.527Z,1018.39
2023-11-18T03:49:13.490Z,1018.39
2023-11-18T03:50:13.504Z,1018.39
2023-11-18T03:51:13.433Z,1018.40
2023-11-18T03:52:13.415Z,1018.39
2023-11-18T03:53:13.384Z,1018.38
2023-11-18T03:54:13.348Z,1018.40
2023-11-18T03:55:13.349Z,1018.40
2023-11-18T03:56:13.293Z,1018.38
2023-11-18T03:57:13.296Z,1018.42
2023-11-18T03:58:13.238Z,1018.43
2023-11-18T03:59:13.214Z,1018.47
2023-11-18T04:00:13.196Z,1018.47
2023-11-18T04:01:13.161Z,1018.54
2023-11-18T04:02:13.203Z,1018.53
2023-11-18T04:03:13.198Z,1018.57
2023-11-18T04:04:13.081Z,1018.56
2023-11-18T04:05:13.122Z,1018.53
2023-11-18T04:06:13.013Z,1018.54
2023-11-18T04:07:12.987Z,1018.54
2023-11-18T04:08:12.998Z,1018.52
2023-11-18T04:09:12.919Z,1018.50
2023-11-18T04:10:12.896Z,1018.52
2023-11-18T04:11:12.957Z,1018.55
2023-11-18T04:12:12.833Z,1018.57
2023-11-18T04:13:12.826Z,1018.53
2023-11-18T04:14:12.813Z,1018.54
2023-11-18T04:15:12.754Z,1018.51
2023-11-18T04:16:12.741Z,1018.47
2023-11-18T04:17:12.914Z,1018.41
2023-11-18T04:18:12.684Z,1018.36
2023-11-18T04:19:12.636Z,1018.33
2023-11-18T04:20:12.925Z,1018.30
2023-11-18T04:21:12.587Z,1018.35
2023-11-18T04:22:12.563Z,1018.38
2023-11-18T04:23:12.546Z,1018.43
2023-11-18T04:24:12.505Z,1018.40
2023-11-18T04:25:12.464Z,1018.43
2023-11-18T04:26:12.505Z,1018.42
2023-11-18T04:27:12.439Z,1018.37
2023-11-18T04:28:12.392Z,1018.32
2023-11-18T04:29:12.402Z,1018.34
2023-11-18T04:30:12.326Z,1018.30
2023-11-18T04:31:12.341Z,1018.26
2023-11-18T04:32:12.288Z,1018.28
2023-11-18T04:33:12.238Z,1018.24
2023-11-18T04:34:12.210Z,1018.27
2023-11-18T04:35:12.210Z,1018.27
2023-11-18T04:36:12.161Z,1018.22
2023-11-18T04:37:12.154Z,1018.25
2023-11-18T04:38:12.159Z,1018.20
2023-11-18T04:39:12.061Z,1018.20
2023-11-18T04:40:12.108Z,1018.19
2023-11-18T04:41:12.076Z,1018.12
2023-11-18T04:42:12.001Z,1018.15
2023-11-18T04:43:11.996Z,1018.18
2023-11-18T04:44:11.982Z,1018.17
2023-11-18T04:45:11.899Z,1018.16
2023-11-18T04:46:11.884Z,1018.11
2023-11-18T04:47:11.953Z,1018.16
2023-11-18T04:48:11.914Z,1018.14
2023-11-18T04:49:11.875Z,1018.10
2023-11-18T04:50:11.821Z,1018.08
2023-11-18T04:51:11.735Z,1018.07
2023-11-18T04:52:11.704Z,1018.02
2023-11-18T04:53:11.720Z,1017.94
2023-11-18T04:54:11.649Z,1017.92
2023-11-18T04:55:11.617Z,1017.92
2023-11-18T04:56:12.055Z,1017.90
2023-11-18T04:57:11.554Z,1017.90
2023-11-18T04:58:11.524Z,1017.89
2023-11-18T04:59:11.548Z,1017.89
2023-11-18T05:00:11.581Z,1017.92
2023-11-18T05:01:11.474Z,1017.93
2023-11-18T05:02:11.589Z,1017.94
2023-11-18T05:03:11.469Z,1017.93
2023-11-18T05:04:11.394Z,1017.95
2023-11-18T05:05:11.384Z,1017.99
2023-11-18T05:06:11.298Z,1017.97
2023-11-18T05:07:11.266Z,1017.94
2023-11-18T05:08:11.345Z,1017.95
2023-11-18T05:09:11.211Z,1017.92
2023-11-18T05:10:11.185Z,1017.89
2023-11-18T05:11:11.324Z,1017.87
2023-11-18T05:12:11.140Z,1017.87
2023-11-18T05:13:11.114Z,1017.80
2023-11-18T05:14:11.167Z,1017.79
2023-11-18T05:15:11.103Z,1017.78
2023-11-18T05:16:11.017Z,1017.80
2023-11-18T05:17:11.034Z,1017.76
2023-11-18T05:18:11.032Z,1017.77
2023-11-18T05:19:10.924Z,1017.77
2023-11-18T05:20:10.932Z,1017.72
2023-11-18T05:21:10.873Z,1017.73
2023-11-18T05:22:10.847Z,1017.70
2023-11-18T05:23:10.876Z,1017.67
2023-11-18T05:24:10.803Z,1017.68
2023-11-18T05:25:10.902Z,1017.60
2023-11-18T05:26:10.801Z,1017.55
2023-11-18T05:27:10.699Z,1017.58
2023-11-18T05:28:10.678Z,1017.48
2023-11-18T05:29:10.699Z,1017.43
2023-11-18T05:30:10.672Z,1017.42
2023-11-18T05:31:10.644Z,1017.44
2023-11-18T05:32:10.622Z,1017.45
2023-11-18T05:33:10.559Z,1017.49
2023-11-18T05:34:10.512Z,1017.49
2023-11-18T05:35:10.514Z,1017.48
2023-11-18T05:36:10.460Z,1017.45
2023-11-18T05:37:10.418Z,1017.40
2023-11-18T05:38:10.462Z,1017.38
2023-11-18T05:39:10.431Z,1017.36
2023-11-18T05:40:10.335Z,1017.37
2023-11-18T05:41:10.350Z,1017.30
2023-11-18T05:42:10.272Z,1017.33
2023-11-18T05:43:10.243Z,1017.30
2023-11-18T05:44:10.317Z,1017.28
2023-11-18T05:45:10.193Z,1017.30
2023-11-18T05:46:10.190Z,1017.32
2023-11-18T05:47:10.220Z,1017.34
2023-11-18T05:48:10.145Z,1017.38
2023-11-18T05:49:10.071Z,1017.41
2023-11-18T05:50:10.075Z,1017.42
2023-11-18T05:51:10.038Z,1017.44
2023-11-18T05:52:09.990Z,1017.45
2023-11-18T05:53:09.964Z,1017.38
2023-11-18T05:54:09.935Z,1017.39
2023-11-18T05:55:09.904Z,1017.45
2023-11-18T05:56:09.930Z,1017.45
2023-11-18T05:57:09.848Z,1017.49
2023-11-18T05:58:09.824Z,1017.49
2023-11-18T05:59:09.861Z,1017.51
2023-11-18T06:00:09.769Z,1017.54
2023-11-18T06:01:09.744Z,1017.53
2023-11-18T06:02:09.837Z,1017.52
2023-11-18T06:03:09.791Z,1017.54
2023-11-18T06:04:09.862Z,1017.50
2023-11-18T06:05:09.693Z,1017.51
2023-11-18T06:06:09.596Z,1017.53
2023-11-18T06:07:09.569Z,1017.62
2023-11-18T06:08:09.575Z,1017.62
2023-11-18T06:09:09.506Z,1017.65
2023-11-18T06:10:09.484Z,1017.64
2023-11-18T06:11:09.497Z,1017.63
2023-11-18T06:12:09.424Z,1017.61
2023-11-18T06:13:09.390Z,1017.59
2023-11-18T06:14:09.406Z,1017.52
2023-11-18T06:15:09.339Z,1017.47
2023-11-18T06:16:09.312Z,1017.44
2023-11-18T06:17:09.344Z,1017.42
2023-11-18T06:18:09.316Z,1017.40
2023-11-18T06:19:09.249Z,1017.38
2023-11-18T06:20:09.244Z,1017.41
2023-11-18T06:21:09.168Z,1017.45
2023-11-18T06:22:09.138Z,1017.45
2023-11-18T06:23:09.176Z,1017.46
2023-11-18T06:24:09.078Z,1017.44
2023-11-18T06:25:09.075Z,1017.44
2023-11-18T06:26:09.105Z,1017.38
2023-11-18T06:27:08.996Z,1017.37
2023-11-18T06:28:09.021Z,1017.38
2023-11-18T06:29:08.982Z,1017.38
2023-11-18T06:30:08.919Z,1017.43
2023-11-18T06:31:08.879Z,1017.42
2023-11-18T06:32:08.917Z,1017.44
2023-11-18T06:33:08.885Z,1017.49
2023-11-18T06:34:08.799Z,1017.50
2023-11-18T06:35:08.841Z,1017.47
2023-11-18T06:36:08.737Z,1017.46
2023-11-18T06:37:08.710Z,1017.42
2023-11-18T06:38:08.725Z,1017.37
2023-11-18T06:39:08.653Z,1017.37
2023-11-18T06:40:08.629Z,1017.37
2023-11-18T06:41:08.659Z,1017.32
2023-11-18T06:42:08.637Z,1017.32
2023-11-18T06:43:08.536Z,1017.29
2023-11-18T06:44:08.561Z,1017.29
2023-11-18T06:45:08.489Z,1017.27
2023-11-18T06:46:10.587Z,1017.31
2023-11-18T06:47:08.523Z,1017.30
2023-11-18T06:48:08.488Z,1017.30
2023-11-18T06:49:08.433Z,1017.31
2023-11-18T06:50:08.380Z,1017.23
2023-11-18T06:51:08.326Z,1017.26
2023-11-18T06:52:08.287Z,1017.21
2023-11-18T06:53:08.285Z,1017.20
2023-11-18T06:54:08.229Z,1017.25
2023-11-18T06:55:08.193Z,1017.27
2023-11-18T06:56:08.216Z,1017.27
2023-11-18T06:57:08.136Z,1017.29
2023-11-18T06:58:08.124Z,1017.35
2023-11-18T06:59:08.188Z,1017.36
2023-11-18T07:00:08.060Z,1017.35
2023-11-18T07:01:08.071Z,1017.31
2023-11-18T07:02:08.066Z,1017.29
2023-11-18T07:03:08.061Z,1017.26
2023-11-18T07:04:07.941Z,1017.24
2023-11-18T07:05:08.020Z,1017.21
2023-11-18T07:06:07.898Z,1017.29
2023-11-18T07:07:07.881Z,1017.25
2023-11-18T07:08:07.828Z,1017.29
2023-11-18T07:09:07.798Z,1017.28
2023-11-18T07:10:07.794Z,1017.30
2023-11-18T07:11:07.789Z,1017.33
2023-11-18T07:12:07.719Z,1017.35
2023-11-18T07:13:07.692Z,1017.29
2023-11-18T07:14:07.718Z,1017.35
2023-11-18T07:15:07.630Z,1017.35
2023-11-18T07:16:07.612Z,1017.37
2023-11-18T07:17:07.632Z,1017.35
2023-11-18T07:18:07.591Z,1017.36
2023-11-18T07:19:07.529Z,1017.42
2023-11-18T07:20:07.487Z,1017.41
2023-11-18T07:21:07.472Z,1017.41
2023-11-18T07:22:07.437Z,1017.37
2023-11-18T07:23:07.445Z,1017.33
2023-11-18T07:24:07.378Z,1017.37
2023-11-18T07:25:07.361Z,1017.35
2023-11-18T07:26:07.373Z,1017.36
2023-11-18T07:27:07.301Z,1017.34
2023-11-18T07:28:07.272Z,1017.38
2023-11-18T07:29:07.314Z,1017.38
2023-11-18T07:30:07.205Z,1017.42
2023-11-18T07:31:07.192Z,1017.46
2023-11-18T07:32:07.199Z,1017.47
2023-11-18T07:33:07.148Z,1017.46
2023-11-18T07:34:07.300Z,1017.51
2023-11-18T07:35:07.118Z,1017.48
2023-11-18T07:36:07.072Z,1017.53
2023-11-18T07:37:07.079Z,1017.52
2023-11-18T07:38:07.042Z,1017.53
2023-11-18T07:39:07.042Z,1017.47
2023-11-18T07:40:06.992Z,1017.48
2023-11-18T07:41:07.034Z,1017.45
2023-11-18T07:42:06.873Z,1017.45
2023-11-18T07:43:06.833Z,1017.39
2023-11-18T07:44:06.861Z,1017.38
2023-11-18T07:45:06.789Z,1017.31
2023-11-18T07:46:06.755Z,1017.25
2023-11-18T07:47:06.752Z,1017.21
2023-11-18T07:48:06.750Z,1017.14
2023-11-18T07:49:06.667Z,1017.16
2023-11-18T07:50:06.648Z,1017.22
2023-11-18T07:51:06.615Z,1017.23
2023-11-18T07:52:06.575Z,1017.21
2023-11-18T07:53:06.593Z,1017.13
2023-11-18T07:54:06.519Z,1017.10
2023-11-18T07:55:06.518Z,1017.05
2023-11-18T07:56:06.490Z,1017.03
2023-11-18T07:57:06.442Z,1017.11
2023-11-18T07:58:06.399Z,1017.18
2023-11-18T07:59:06.411Z,1017.23
2023-11-18T08:00:06.351Z,1017.27
2023-11-18T08:01:06.347Z,1017.26
2023-11-18T08:02:07.396Z,1017.25
2023-11-18T08:03:06.375Z,1017.22
2023-11-18T08:04:06.259Z,1017.17
2023-11-18T08:05:06.269Z,1017.21
2023-11-18T08:06:06.176Z,1017.22
2023-11-18T08:07:06.166Z,1017.26
2023-11-18T08:08:06.198Z,1017.26
2023-11-18T08:09:06.096Z,1017.27
2023-11-18T08:10:06.085Z,1017.27
2023-11-18T08:11:06.100Z,1017.24
2023-11-18T08:12:06.012Z,1017.28
2023-11-18T08:13:05.982Z,1017.31
2023-11-18T08:14:06.008Z,1017.34
2023-11-18T08:15:05.929Z,1017.34
2023-11-18T08:16:05.929Z,1017.36
2023-11-18T08:17:05.976Z,1017.37
2023-11-18T08:18:05.892Z,1017.39
2023-11-18T08:19:05.815Z,1017.37
2023-11-18T08:20:05.807Z,1017.41
2023-11-18T08:21:05.758Z,1017.40
2023-11-18T08:22:05.729Z,1017.41
2023-11-18T08:23:05.715Z,1017.43
2023-11-18T08:24:05.684Z,1017.44
2023-11-18T08:25:05.647Z,1017.41
2023-11-18T08:26:05.647Z,1017.41
2023-11-18T08:27:05.612Z,1017.34
2023-11-18T08:28:05.558Z,1017.33
2023-11-18T08:29:05.597Z,1017.30
2023-11-18T08:30:05.508Z,1017.32
2023-11-18T08:31:05.522Z,1017.32
2023-11-18T08:32:05.569Z,1017.31
2023-11-18T08:33:06.737Z,1017.30
2023-11-18T08:34:05.402Z,1017.26
2023-11-18T08:35:05.385Z,1017.29
2023-11-18T08:36:05.337Z,1017.26
2023-11-18T08:37:05.312Z,1017.27
2023-11-18T08:38:05.325Z,1017.32
2023-11-18T08:39:05.260Z,1017.31
2023-11-18T08:40:05.222Z,1017.29
2023-11-18T08:41:05.203Z,1017.30
2023-11-18T08:42:05.169Z,1017.30
2023-11-18T08:43:05.156Z,1017.28
2023-11-18T08:44:14.073Z,1017.26
2023-11-18T08:45:06.149Z,1017.29
2023-11-18T08:46:05.102Z,1017.23
2023-11-18T08:47:05.046Z,1017.27
2023-11-18T08:48:05.040Z,1017.28
2023-11-18T08:49:04.970Z,1017.27
2023-11-18T08:50:04.988Z,1017.28
2023-11-18T08:51:04.915Z,1017.28
2023-11-18T08:52:04.885Z,1017.27
2023-11-18T08:53:04.878Z,1017.24
2023-11-18T08:54:04.829Z,1017.24
2023-11-18T08:55:04.804Z,1017.23
2023-11-18T08:56:04.824Z,1017.19
2023-11-18T08:57:04.745Z,1017.16
2023-11-18T08:58:04.732Z,1017.14
2023-11-18T08:59:04.715Z,1017.15
2023-11-18T09:00:04.677Z,1017.13
2023-11-18T09:01:04.637Z,1017.11
2023-11-18T09:02:04.717Z,1017.07
2023-11-18T09:03:04.758Z,1017.07
2023-11-18T09:04:04.652Z,1017.05
2023-11-18T09:05:04.598Z,1017.07
2023-11-18T09:06:04.516Z,1017.05
2023-11-18T09:07:04.472Z,1016.99
2023-11-18T09:08:04.487Z,1017.02
2023-11-18T09:09:04.406Z,1016.97
2023-11-18T09:10:04.381Z,1016.88
2023-11-18T09:11:04.403Z,1016.91
2023-11-18T09:12:04.326Z,1016.87
2023-11-18T09:13:04.303Z,1016.90
2023-11-18T09:14:04.295Z,1016.90
2023-11-18T09:15:04.264Z,1016.93
2023-11-18T09:16:04.218Z,1016.87
2023-11-18T09:17:04.216Z,1016.86
2023-11-18T09:18:04.296Z,1016.82
2023-11-18T09:19:04.522Z,1016.78
2023-11-18T09:20:04.135Z,1016.76
2023-11-18T09:21:04.074Z,1016.82
2023-11-18T09:22:04.049Z,1016.80
2023-11-18T09:23:04.092Z,1016.78
2023-11-18T09:24:03.984Z,1016.78
2023-11-18T09:25:03.986Z,1016.77
2023-11-18T09:26:03.979Z,1016.72
2023-11-18T09:27:03.917Z,1016.64
2023-11-18T09:28:03.884Z,1016.60
2023-11-18T09:29:03.926Z,1016.55
2023-11-18T09:30:03.829Z,1016.49
2023-11-18T09:31:03.854Z,1016.41
2023-11-18T09:32:03.802Z,1016.37
2023-11-18T09:33:03.988Z,1016.40
2023-11-18T09:34:03.708Z,1016.37
2023-11-18T09:35:03.738Z,1016.31
2023-11-18T09:36:03.650Z,1016.33
2023-11-18T09:37:03.628Z,1016.32
2023-11-18T09:38:03.644Z,1016.31
2023-11-18T09:39:03.584Z,1016.28
2023-11-18T09:40:03.537Z,1016.30
2023-11-18T09:41:03.901Z,1016.33
2023-11-18T09:42:03.492Z,1016.31
2023-11-18T09:43:03.457Z,1016.29
2023-11-18T09:44:03.584Z,1016.33
2023-11-18T09:45:03.403Z,1016.32
2023-11-18T09:46:03.398Z,1016.33
2023-11-18T09:47:03.436Z,1016.35
2023-11-18T09:48:03.356Z,1016.31
2023-11-18T09:49:03.288Z,1016.33
2023-11-18T09:50:03.296Z,1016.32
2023-11-18T09:51:03.322Z,1016.32
2023-11-18T09:52:03.205Z,1016.33
2023-11-18T09:53:03.225Z,1016.33
2023-11-18T09:54:03.168Z,1016.30
2023-11-18T09:55:03.120Z,1016.31
2023-11-18T09:56:03.100Z,1016.27
2023-11-18T09:57:03.069Z,1016.30
2023-11-18T09:58:03.032Z,1016.25
2023-11-18T09:59:03.035Z,1016.25
2023-11-18T10:00:03.013Z,1016.22
2023-11-18T10:01:02.958Z,1016.26
2023-11-18T10:02:03.046Z,1016.30
2023-11-18T10:03:03.237Z,1016.31
2023-11-18T10:04:02.902Z,1016.31
2023-11-18T10:05:02.889Z,1016.35
2023-11-18T10:06:02.823Z,1016.35
2023-11-18T10:07:02.793Z,1016.37
2023-11-18T10:08:02.776Z,1016.33
2023-11-18T10:09:02.732Z,1016.36
2023-11-18T10:10:02.701Z,1016.33
2023-11-18T10:11:02.675Z,1016.33
2023-11-18T10:12:02.643Z,1016.32
2023-11-18T10:13:02.624Z,1016.37
2023-11-18T10:14:02.628Z,1016.35
2023-11-18T10:15:02.569Z,1016.34
2023-11-18T10:16:02.531Z,1016.33
2023-11-18T10:17:02.520Z,1016.31
2023-11-18T10:18:02.514Z,1016.24
2023-11-18T10:19:02.529Z,1016.24
2023-11-18T10:20:02.465Z,1016.20
2023-11-18T10:21:02.399Z,1016.19
2023-11-18T10:22:04.397Z,1016.16
2023-11-18T10:23:02.364Z,1016.19
2023-11-18T10:24:02.332Z,1016.16
2023-11-18T10:25:02.726Z,1016.11
2023-11-18T10:26:02.585Z,1016.10
2023-11-18T10:27:02.231Z,1016.09
2023-11-18T10:28:04.590Z,1016.07
2023-11-18T10:29:02.193Z,1016.05
2023-11-18T10:30:02.209Z,1016.02
2023-11-18T10:31:02.115Z,1016.04
2023-11-18T10:32:02.123Z,1016.07
2023-11-18T10:33:02.095Z,1016.09
2023-11-18T10:34:04.788Z,1016.13
2023-11-18T10:35:02.075Z,1016.11
2023-11-18T10:36:02.026Z,1016.10
2023-11-18T10:37:01.946Z,1016.06
2023-11-18T10:38:01.943Z,1016.06
2023-11-18T10:39:01.907Z,1016.04
2023-11-18T10:40:01.890Z,1015.99
2023-11-18T10:41:01.852Z,1015.96
2023-11-18T10:42:01.796Z,1015.90
2023-11-18T10:43:01.785Z,1015.92
2023-11-18T10:44:01.761Z,1015.94
2023-11-18T10:45:01.732Z,1015.87
2023-11-18T10:46:01.725Z,1015.87
2023-11-18T10:47:01.736Z,1015.81
2023-11-18T10:48:01.675Z,1015.84
2023-11-18T10:49:01.653Z,1015.80
2023-11-18T10:50:01.640Z,1015.84
2023-11-18T10:51:01.581Z,1015.78
2023-11-18T10:52:04.491Z,1015.73
2023-11-18T10:53:01.530Z,1015.66
2023-11-18T10:54:01.476Z,1015.59
2023-11-18T10:55:01.457Z,1015.56
2023-11-18T10:56:01.478Z,1015.56
2023-11-18T10:57:01.398Z,1015.52
2023-11-18T10:58:04.681Z,1015.53
2023-11-18T10:59:01.378Z,1015.47
2023-11-18T11:00:01.367Z,1015.44
2023-11-18T11:01:01.284Z,1015.41
2023-11-18T11:02:01.289Z,1015.36
2023-11-18T11:03:01.372Z,1015.29
2023-11-18T11:04:04.048Z,1015.27
2023-11-18T11:05:01.188Z,1015.23
2023-11-18T11:06:01.184Z,1015.25
2023-11-18T11:07:01.136Z,1015.23
2023-11-18T11:08:01.121Z,1015.23
2023-11-18T11:09:01.058Z,1015.18
2023-11-18T11:10:01.029Z,1015.15
2023-11-18T11:11:01.025Z,1015.14
2023-11-18T11:12:00.967Z,1015.11
2023-11-18T11:13:00.954Z,1015.05
2023-11-18T11:14:01.044Z,1015.02
2023-11-18T11:15:01.020Z,1015.00
2023-11-18T11:16:00.878Z,1014.94
2023-11-18T11:17:00.908Z,1014.91
2023-11-18T11:18:00.943Z,1014.91
2023-11-18T11:19:00.783Z,1014.91
2023-11-18T11:20:00.865Z,1014.91
2023-11-18T11:21:00.733Z,1014.93
2023-11-18T11:22:00.692Z,1014.93
2023-11-18T11:23:00.839Z,1015.02
2023-11-18T11:24:00.642Z,1015.11
2023-11-18T11:25:00.614Z,1015.12
2023-11-18T11:26:00.698Z,1015.15
2023-11-18T11:27:00.555Z,1015.20
2023-11-18T11:28:00.531Z,1015.22
2023-11-18T11:29:00.531Z,1015.24
2023-11-18T11:30:00.511Z,1015.27
2023-11-18T11:31:00.610Z,1015.26
2023-11-18T11:32:00.444Z,1015.18
2023-11-18T11:33:00.401Z,1015.13
2023-11-18T11:34:00.383Z,1015.11
2023-11-18T11:35:00.354Z,1015.05
2023-11-18T11:36:00.350Z,1014.97
2023-11-18T11:37:00.282Z,1014.98
2023-11-18T11:38:00.331Z,1014.98
2023-11-18T11:39:00.249Z,1015.02
2023-11-18T11:40:00.323Z,1015.03
2023-11-18T11:41:00.262Z,1014.95
2023-11-18T11:42:00.393Z,1014.91
2023-11-18T11:43:00.121Z,1014.84
2023-11-18T11:44:00.309Z,1014.84
2023-11-18T11:45:00.061Z,1014.84
2023-11-18T11:46:00.180Z,1014.87
2023-11-18T11:47:00.059Z,1014.91
2023-11-18T11:48:00.084Z,1014.88
2023-11-18T11:48:59.949Z,1014.91
2023-11-18T11:50:01.784Z,1014.87
2023-11-18T11:50:59.893Z,1014.85
2023-11-18T11:51:59.863Z,1014.80
2023-11-18T11:52:59.868Z,1014.79
2023-11-18T11:53:59.812Z,1014.81
2023-11-18T11:54:59.804Z,1014.84
2023-11-18T11:55:59.776Z,1014.85
2023-11-18T11:56:59.725Z,1014.82
2023-11-18T11:57:59.714Z,1014.81
2023-11-18T11:58:59.711Z,1014.80
2023-11-18T11:59:59.665Z,1014.86
2023-11-18T12:00:59.614Z,1014.86
2023-11-18T12:01:59.690Z,1014.86
2023-11-18T12:02:59.585Z,1014.80
2023-11-18T12:04:00.034Z,1014.79
2023-11-18T12:04:59.869Z,1014.74
2023-11-18T12:05:59.480Z,1014.79